AirNav   Everest Fuels
 
 1164 users online  

95KY Crawford Ultralight Flightpark
Brodhead, Kentucky, USA

GOING TO BRODHEAD?


FAA INFORMATION EFFECTIVE 19 MAY 2022

Location

FAA Identifier: 95KY
Lat/Long: 37-25-13.0000N 084-22-09.0000W
37-25.216667N 084-22.150000W
37.4202778,-84.3691667
(estimated)
Elevation: 1227 ft. / 374.0 m (surveyed)
Variation: 03W (1990)
From city: 3 miles NE of BRODHEAD, KY
Time zone: UTC -4 (UTC -5 during Standard Time)
Zip code: 40409

Ultralight Flight Park Operations

Ultralight Flight Park use: Private use. Permission required prior to landing
Activation date: 11/1992
Control tower: no
ARTCC: INDIANAPOLIS CENTER
FSS: LOUISVILLE FLIGHT SERVICE STATION
Attendance: UNATNDD
Wind indicator: yes
Segmented circle: no

Ultralight Flight Park Communications

WX AWOS-3 at RGA (13 nm N): 119.625 (859-985-5969)

Nearby radio navigation aids

VOR radial/distance  VOR name  Freq  Var
LOZr335/26.3LONDON VOR/DME116.5503W
HYKr171/33.1LEXINGTON VOR/DME112.6000E

 
NDB name  Hdg/Dist  Freq  Var  ID
GOODALL119/21.031103WDVK -.. ...- -.-
SECO221/25.939303WXYC -..- -.-- -.-.
CUMBERLAND RIVER035/29.538805WCDX -.-. -.. -..-

Ultralight Flight Park Services

Runway Information

Runway 5U/23U

Dimensions: 1880 x 60 ft. / 573 x 18 m
Surface: turf
RUNWAY 5U  RUNWAY 23U
Traffic pattern: rightleft

Ultralight Flight Park Ownership and Management from official FAA records

Ownership: Privately-owned
Owner: ROBERT H. CRAWFORD
1991 MT ZION RD
BRODHEAD, KY 40409
Phone 606-308-5181
ALTERNATE: 606-308-5181
Manager: ROBERT H. CRAWFORD
1991 MT ZION RD
BRODHEAD, KY 40409
Phone 606-308-5181
ALTERNATE: 606-308-5181

Ultralight Flight Park Operational Statistics

Aircraft based on the field: 6
Single engine airplanes: 3
Ultralights: 3
    

Additional Remarks

PILOTS INTENDING TO LAND MUST PHONE AHEAD FOR PERMISSION, PPR REQUIRED..
FOR CD CTC INDIANAPOLIS ARTCC AT 317-247-2411.

Instrument Procedures

There are no published instrument procedures at 95KY.

Some nearby airports with instrument procedures:

KRGA - Central Kentucky Regional Airport (13 nm N)
KDVK - Stuart Powell Field Airport (21 nm NW)
KLOZ - London (Corbin) Magee Airport (24 nm SE)
KSME - Lake Cumberland Regional Airport (25 nm SW)
KBYL - Williamsburg-Whitley County Airport (38 nm S)
 
Loc | Ops | Rwys | IFR | FBO | Links
Com | Nav | Svcs | Stats | Notes
Area around 95KY (Crawford Ultralight Flightpark)
 
Road maps at: MapQuest Bing Google
 
Aerial photo
WARNING: Photo may not be current or correct
Aerial photo of 95KY (Crawford Ultralight Flightpark)
looking southwest.

Do you have a better or more recent aerial photo of Crawford Ultralight Flightpark that you would like to share? If so, please send us your photo.

 
Sectional chart

 
Airport distance calculator
Flying to Crawford Ultralight Flightpark? Find the distance to fly.

From to 95KY

Sunrise and sunset
Times for 27-May-2022
 Local
(UTC-4)
 Zulu
(UTC)
Morning civil twilight05:5109:51
Sunrise06:2110:21
Sunset20:4800:48
Evening civil twilight21:1801:18

Current date and time
Zulu (UTC)  27-May-2022 23:31:32
Local (UTC-4)  27-May-2022 19:31:32
 
METAR
KRGA 
13nm N 
272315Z AUTO 00000KT 10SM BKN034 BKN045 OVC060 18/14 A2985 RMK AO2
KDVK 
21nm NW 
272315Z AUTO 28006KT 10SM SCT036 SCT042 SCT070 21/12 A2986 RMK AO2
KLOZ 
25nm SE 
272253Z AUTO 25012G18KT 10SM OVC080 19/13 A2986 RMK AO2 SLP105 T01890133
KSME 
25nm SW 
272315Z AUTO 27008KT 10SM FEW044 BKN070 19/15 A2986 RMK AO2
TAF
KLOZ 
25nm SE 
271738Z 2718/2818 24009G16KT P6SM VCSH BKN050 FM280300 VRB03KT P6SM BKN035 FM280700 VRB03KT 3SM BR BKN007 FM281300 VRB03KT P6SM BKN030 FM281600 VRB03KT P6SM SCT060
KSME 
25nm SW 
271738Z 2718/2818 25010G18KT P6SM VCSH BKN050 FM280300 VRB03KT P6SM BKN030 FM280600 VRB03KT 3SM BR BKN007 FM281300 VRB03KT P6SM BKN025 FM281600 VRB03KT P6SM SCT060
NOTAMs
Click for the latest NOTAMs
NOTAMs are issued by the DoD/FAA and will open in a separate window not controlled by AirNav.

 

 
 

Would you like to see your business listed on this page?

 If your business provides an interesting product or service to pilots, flight crews, aircraft, or users of the Crawford Ultralight Flightpark, you should consider listing it here.  To start the listing process, click on the button below
 
Add a business
 

Other Pages about Crawford Ultralight Flightpark

Update a link
 
Copyright © AirNav, LLC. All rights reserved. Privacy Policy  Contact